sensor_id;sensor_type;location;lat;lon;timestamp;P1;durP1;ratioP1;P2;durP2;ratioP2
8584;SDS011;7180;52.742;11.420;2023-02-22T00:01:14;14.20;;;13.13;;
8584;SDS011;7180;52.742;11.420;2023-02-22T00:03:47;14.03;;;13.00;;
8584;SDS011;7180;52.742;11.420;2023-02-22T00:06:16;13.93;;;12.83;;
8584;SDS011;7180;52.742;11.420;2023-02-22T00:08:43;14.70;;;13.50;;
8584;SDS011;7180;52.742;11.420;2023-02-22T00:11:08;14.30;;;13.30;;
8584;SDS011;7180;52.742;11.420;2023-02-22T00:13:34;14.30;;;13.23;;
8584;SDS011;7180;52.742;11.420;2023-02-22T00:16:00;14.60;;;13.60;;
8584;SDS011;7180;52.742;11.420;2023-02-22T00:18:27;13.93;;;12.93;;
8584;SDS011;7180;52.742;11.420;2023-02-22T00:20:53;14.87;;;13.67;;
8584;SDS011;7180;52.742;11.420;2023-02-22T00:23:26;13.83;;;12.83;;
8584;SDS011;7180;52.742;11.420;2023-02-22T00:25:56;14.13;;;13.03;;
8584;SDS011;7180;52.742;11.420;2023-02-22T00:28:23;14.73;;;13.50;;
8584;SDS011;7180;52.742;11.420;2023-02-22T00:30:49;15.17;;;13.80;;
8584;SDS011;7180;52.742;11.420;2023-02-22T00:33:15;14.87;;;13.77;;
8584;SDS011;7180;52.742;11.420;2023-02-22T00:35:41;14.87;;;13.67;;
8584;SDS011;7180;52.742;11.420;2023-02-22T00:38:10;14.67;;;13.57;;
8584;SDS011;7180;52.742;11.420;2023-02-22T00:40:36;15.33;;;14.10;;
8584;SDS011;7180;52.742;11.420;2023-02-22T00:43:02;14.93;;;13.83;;
8584;SDS011;7180;52.742;11.420;2023-02-22T00:45:29;14.80;;;13.47;;
8584;SDS011;7180;52.742;11.420;2023-02-22T00:47:56;15.07;;;13.87;;
8584;SDS011;7180;52.742;11.420;2023-02-22T00:50:22;14.97;;;13.83;;
8584;SDS011;7180;52.742;11.420;2023-02-22T00:52:49;15.30;;;14.10;;
8584;SDS011;7180;52.742;11.420;2023-02-22T00:55:17;15.33;;;13.93;;
8584;SDS011;7180;52.742;11.420;2023-02-22T00:57:44;15.40;;;14.20;;
8584;SDS011;7180;52.742;11.420;2023-02-22T01:00:14;15.00;;;13.90;;
8584;SDS011;7180;52.742;11.420;2023-02-22T01:02:50;15.30;;;14.10;;
8584;SDS011;7180;52.742;11.420;2023-02-22T01:05:20;15.20;;;13.97;;
8584;SDS011;7180;52.742;11.420;2023-02-22T01:07:47;15.43;;;14.13;;
8584;SDS011;7180;52.742;11.420;2023-02-22T01:10:13;15.67;;;14.37;;
8584;SDS011;7180;52.742;11.420;2023-02-22T01:12:39;15.20;;;13.90;;
8584;SDS011;7180;52.742;11.420;2023-02-22T01:15:06;15.40;;;14.20;;
8584;SDS011;7180;52.742;11.420;2023-02-22T01:17:34;15.07;;;13.87;;
8584;SDS011;7180;52.742;11.420;2023-02-22T01:20:00;15.47;;;14.27;;
8584;SDS011;7180;52.742;11.420;2023-02-22T01:22:26;16.70;;;15.07;;
8584;SDS011;7180;52.742;11.420;2023-02-22T01:24:52;15.87;;;14.50;;
8584;SDS011;7180;52.742;11.420;2023-02-22T01:27:17;16.30;;;14.90;;
8584;SDS011;7180;52.742;11.420;2023-02-22T01:29:42;16.20;;;14.83;;
8584;SDS011;7180;52.742;11.420;2023-02-22T01:32:09;15.93;;;14.53;;
8584;SDS011;7180;52.742;11.420;2023-02-22T01:34:35;15.93;;;14.53;;
8584;SDS011;7180;52.742;11.420;2023-02-22T01:37:01;15.50;;;14.10;;
8584;SDS011;7180;52.742;11.420;2023-02-22T01:39:26;15.73;;;14.43;;
8584;SDS011;7180;52.742;11.420;2023-02-22T01:41:51;15.57;;;14.23;;
8584;SDS011;7180;52.742;11.420;2023-02-22T01:44:19;15.93;;;14.50;;
8584;SDS011;7180;52.742;11.420;2023-02-22T01:46:50;15.37;;;14.07;;
8584;SDS011;7180;52.742;11.420;2023-02-22T01:49:16;16.20;;;14.70;;
8584;SDS011;7180;52.742;11.420;2023-02-22T01:51:43;16.33;;;14.83;;
8584;SDS011;7180;52.742;11.420;2023-02-22T01:56:41;15.83;;;14.53;;
8584;SDS011;7180;52.742;11.420;2023-02-22T01:59:17;16.40;;;15.10;;
8584;SDS011;7180;52.742;11.420;2023-02-22T02:01:45;15.63;;;14.23;;
8584;SDS011;7180;52.742;11.420;2023-02-22T02:04:13;15.50;;;14.20;;
8584;SDS011;7180;52.742;11.420;2023-02-22T02:06:43;16.13;;;14.73;;
8584;SDS011;7180;52.742;11.420;2023-02-22T02:09:43;15.97;;;14.60;;
8584;SDS011;7180;52.742;11.420;2023-02-22T02:12:09;15.60;;;14.30;;
8584;SDS011;7180;52.742;11.420;2023-02-22T02:14:36;15.37;;;14.17;;
8584;SDS011;7180;52.742;11.420;2023-02-22T02:17:04;15.63;;;14.33;;
8584;SDS011;7180;52.742;11.420;2023-02-22T02:25:51;14.43;;;13.33;;
8584;SDS011;7180;52.742;11.420;2023-02-22T02:28:38;14.80;;;13.40;;
8584;SDS011;7180;52.742;11.420;2023-02-22T02:37:15;13.33;;;12.43;;
8584;SDS011;7180;52.742;11.420;2023-02-22T02:39:52;13.90;;;12.90;;
8584;SDS011;7180;52.742;11.420;2023-02-22T02:42:27;13.90;;;12.80;;
8584;SDS011;7180;52.742;11.420;2023-02-22T02:45:05;14.50;;;13.23;;
8584;SDS011;7180;52.742;11.420;2023-02-22T02:47:36;13.43;;;12.30;;
8584;SDS011;7180;52.742;11.420;2023-02-22T02:50:14;14.73;;;13.33;;
8584;SDS011;7180;52.742;11.420;2023-02-22T02:53:01;13.57;;;12.53;;
8584;SDS011;7180;52.742;11.420;2023-02-22T02:55:29;14.23;;;13.17;;
8584;SDS011;7180;52.742;11.420;2023-02-22T02:57:56;14.20;;;13.10;;
8584;SDS011;7180;52.742;11.420;2023-02-22T03:00:23;14.13;;;13.13;;
8584;SDS011;7180;52.742;11.420;2023-02-22T03:11:06;14.10;;;13.00;;
8584;SDS011;7180;52.742;11.420;2023-02-22T03:16:39;14.97;;;13.77;;
8584;SDS011;7180;52.742;11.420;2023-02-22T03:19:22;16.03;;;14.63;;
8584;SDS011;7180;52.742;11.420;2023-02-22T03:22:29;15.07;;;13.87;;
8584;SDS011;7180;52.742;11.420;2023-02-22T03:25:04;16.47;;;15.07;;
8584;SDS011;7180;52.742;11.420;2023-02-22T03:30:21;16.23;;;14.83;;
8584;SDS011;7180;52.742;11.420;2023-02-22T03:32:51;17.07;;;15.47;;
8584;SDS011;7180;52.742;11.420;2023-02-22T03:35:25;16.87;;;15.40;;
8584;SDS011;7180;52.742;11.420;2023-02-22T03:37:56;15.73;;;14.43;;
8584;SDS011;7180;52.742;11.420;2023-02-22T03:40:30;16.93;;;15.20;;
8584;SDS011;7180;52.742;11.420;2023-02-22T03:43:09;16.13;;;14.83;;
8584;SDS011;7180;52.742;11.420;2023-02-22T03:45:39;16.47;;;14.97;;
8584;SDS011;7180;52.742;11.420;2023-02-22T03:48:15;16.37;;;14.97;;
8584;SDS011;7180;52.742;11.420;2023-02-22T03:50:46;16.93;;;15.23;;
8584;SDS011;7180;52.742;11.420;2023-02-22T03:53:12;16.77;;;15.27;;
8584;SDS011;7180;52.742;11.420;2023-02-22T03:55:38;16.33;;;14.83;;
8584;SDS011;7180;52.742;11.420;2023-02-22T03:58:04;16.63;;;15.20;;
8584;SDS011;7180;52.742;11.420;2023-02-22T04:00:33;17.33;;;15.83;;
8584;SDS011;7180;52.742;11.420;2023-02-22T04:02:59;16.27;;;14.77;;
8584;SDS011;7180;52.742;11.420;2023-02-22T04:05:25;15.53;;;14.13;;
8584;SDS011;7180;52.742;11.420;2023-02-22T04:07:51;14.87;;;13.47;;
8584;SDS011;7180;52.742;11.420;2023-02-22T04:10:17;15.00;;;13.70;;
8584;SDS011;7180;52.742;11.420;2023-02-22T04:12:43;15.07;;;13.87;;
8584;SDS011;7180;52.742;11.420;2023-02-22T04:15:10;14.63;;;13.53;;
8584;SDS011;7180;52.742;11.420;2023-02-22T04:17:37;14.90;;;13.53;;
8584;SDS011;7180;52.742;11.420;2023-02-22T04:20:03;14.53;;;13.30;;
8584;SDS011;7180;52.742;11.420;2023-02-22T04:22:30;15.10;;;13.80;;
8584;SDS011;7180;52.742;11.420;2023-02-22T04:24:55;14.77;;;13.37;;
8584;SDS011;7180;52.742;11.420;2023-02-22T04:27:20;15.43;;;14.13;;
8584;SDS011;7180;52.742;11.420;2023-02-22T04:29:46;16.30;;;14.90;;
8584;SDS011;7180;52.742;11.420;2023-02-22T04:32:11;15.17;;;13.87;;
8584;SDS011;7180;52.742;11.420;2023-02-22T04:34:36;17.10;;;15.60;;
8584;SDS011;7180;52.742;11.420;2023-02-22T04:37:02;23.13;;;20.63;;
8584;SDS011;7180;52.742;11.420;2023-02-22T04:39:27;23.73;;;21.13;;
8584;SDS011;7180;52.742;11.420;2023-02-22T04:41:52;24.73;;;21.50;;
8584;SDS011;7180;52.742;11.420;2023-02-22T04:44:18;15.97;;;14.53;;
8584;SDS011;7180;52.742;11.420;2023-02-22T04:46:43;14.57;;;13.37;;
8584;SDS011;7180;52.742;11.420;2023-02-22T04:49:10;14.40;;;13.30;;
8584;SDS011;7180;52.742;11.420;2023-02-22T04:51:35;14.73;;;13.53;;
8584;SDS011;7180;52.742;11.420;2023-02-22T04:54:01;14.27;;;13.13;;
8584;SDS011;7180;52.742;11.420;2023-02-22T04:56:26;14.43;;;13.23;;
8584;SDS011;7180;52.742;11.420;2023-02-22T04:58:51;15.10;;;13.80;;
8584;SDS011;7180;52.742;11.420;2023-02-22T05:01:17;14.73;;;13.53;;
8584;SDS011;7180;52.742;11.420;2023-02-22T05:03:43;15.57;;;14.17;;
8584;SDS011;7180;52.742;11.420;2023-02-22T05:06:08;14.93;;;13.63;;
8584;SDS011;7180;52.742;11.420;2023-02-22T05:08:33;14.70;;;13.50;;
8584;SDS011;7180;52.742;11.420;2023-02-22T05:10:59;15.40;;;14.00;;
8584;SDS011;7180;52.742;11.420;2023-02-22T05:13:24;15.20;;;13.80;;
8584;SDS011;7180;52.742;11.420;2023-02-22T05:15:50;14.87;;;13.57;;
8584;SDS011;7180;52.742;11.420;2023-02-22T05:18:15;15.33;;;14.03;;
8584;SDS011;7180;52.742;11.420;2023-02-22T05:20:41;15.83;;;14.43;;
8584;SDS011;7180;52.742;11.420;2023-02-22T05:23:06;15.83;;;14.43;;
8584;SDS011;7180;52.742;11.420;2023-02-22T05:25:31;15.43;;;14.03;;
8584;SDS011;7180;52.742;11.420;2023-02-22T05:27:58;15.40;;;14.00;;
8584;SDS011;7180;52.742;11.420;2023-02-22T05:30:30;16.57;;;15.07;;
8584;SDS011;7180;52.742;11.420;2023-02-22T05:32:57;16.77;;;15.27;;
8584;SDS011;7180;52.742;11.420;2023-02-22T05:35:23;15.80;;;14.30;;
8584;SDS011;7180;52.742;11.420;2023-02-22T05:37:48;15.90;;;14.40;;
8584;SDS011;7180;52.742;11.420;2023-02-22T05:40:18;15.83;;;14.43;;
8584;SDS011;7180;52.742;11.420;2023-02-22T05:42:44;15.90;;;14.53;;
8584;SDS011;7180;52.742;11.420;2023-02-22T05:45:13;15.97;;;14.57;;
8584;SDS011;7180;52.742;11.420;2023-02-22T05:47:40;16.23;;;14.83;;
8584;SDS011;7180;52.742;11.420;2023-02-22T05:50:05;16.77;;;15.37;;
8584;SDS011;7180;52.742;11.420;2023-02-22T05:52:31;17.50;;;15.90;;
8584;SDS011;7180;52.742;11.420;2023-02-22T05:54:57;16.97;;;15.30;;
8584;SDS011;7180;52.742;11.420;2023-02-22T05:57:22;16.70;;;15.10;;
8584;SDS011;7180;52.742;11.420;2023-02-22T05:59:47;16.77;;;15.27;;
8584;SDS011;7180;52.742;11.420;2023-02-22T06:02:13;17.63;;;15.60;;
8584;SDS011;7180;52.742;11.420;2023-02-22T06:04:38;16.93;;;15.43;;
8584;SDS011;7180;52.742;11.420;2023-02-22T06:07:04;16.90;;;15.33;;
8584;SDS011;7180;52.742;11.420;2023-02-22T06:09:29;16.67;;;15.00;;
8584;SDS011;7180;52.742;11.420;2023-02-22T06:11:54;16.67;;;15.17;;
8584;SDS011;7180;52.742;11.420;2023-02-22T06:14:20;16.60;;;15.07;;
8584;SDS011;7180;52.742;11.420;2023-02-22T06:16:50;17.37;;;15.73;;
8584;SDS011;7180;52.742;11.420;2023-02-22T06:19:16;16.80;;;15.07;;
8584;SDS011;7180;52.742;11.420;2023-02-22T06:21:47;16.73;;;15.10;;
8584;SDS011;7180;52.742;11.420;2023-02-22T06:24:15;16.70;;;15.10;;
8584;SDS011;7180;52.742;11.420;2023-02-22T06:26:41;16.47;;;14.83;;
8584;SDS011;7180;52.742;11.420;2023-02-22T06:29:06;17.30;;;15.50;;
8584;SDS011;7180;52.742;11.420;2023-02-22T06:31:32;18.07;;;15.77;;
8584;SDS011;7180;52.742;11.420;2023-02-22T06:33:57;18.30;;;15.87;;
8584;SDS011;7180;52.742;11.420;2023-02-22T06:36:23;18.00;;;15.77;;
8584;SDS011;7180;52.742;11.420;2023-02-22T06:38:48;18.00;;;15.40;;
8584;SDS011;7180;52.742;11.420;2023-02-22T06:41:13;21.47;;;15.53;;
8584;SDS011;7180;52.742;11.420;2023-02-22T06:43:39;19.37;;;15.10;;
8584;SDS011;7180;52.742;11.420;2023-02-22T06:46:08;20.00;;;15.80;;
8584;SDS011;7180;52.742;11.420;2023-02-22T06:48:35;21.07;;;15.67;;
8584;SDS011;7180;52.742;11.420;2023-02-22T06:51:02;20.77;;;16.27;;
8584;SDS011;7180;52.742;11.420;2023-02-22T06:53:27;23.40;;;16.37;;
8584;SDS011;7180;52.742;11.420;2023-02-22T06:55:52;25.43;;;17.73;;
8584;SDS011;7180;52.742;11.420;2023-02-22T06:58:19;23.90;;;17.70;;
8584;SDS011;7180;52.742;11.420;2023-02-22T07:00:44;22.97;;;17.13;;
8584;SDS011;7180;52.742;11.420;2023-02-22T07:03:09;21.70;;;15.53;;
8584;SDS011;7180;52.742;11.420;2023-02-22T07:05:35;27.23;;;17.27;;
8584;SDS011;7180;52.742;11.420;2023-02-22T07:08:02;20.53;;;16.57;;
8584;SDS011;7180;52.742;11.420;2023-02-22T07:10:29;24.50;;;16.87;;
8584;SDS011;7180;52.742;11.420;2023-02-22T07:12:56;24.00;;;16.93;;
8584;SDS011;7180;52.742;11.420;2023-02-22T07:15:22;24.50;;;17.47;;
8584;SDS011;7180;52.742;11.420;2023-02-22T07:17:49;24.77;;;18.03;;
8584;SDS011;7180;52.742;11.420;2023-02-22T07:20:16;26.40;;;17.53;;
8584;SDS011;7180;52.742;11.420;2023-02-22T07:22:44;26.00;;;17.73;;
8584;SDS011;7180;52.742;11.420;2023-02-22T07:25:09;24.47;;;18.50;;
8584;SDS011;7180;52.742;11.420;2023-02-22T07:27:36;26.03;;;18.17;;
8584;SDS011;7180;52.742;11.420;2023-02-22T07:30:03;28.60;;;17.73;;
8584;SDS011;7180;52.742;11.420;2023-02-22T07:32:49;27.73;;;18.43;;
8584;SDS011;7180;52.742;11.420;2023-02-22T07:35:17;25.17;;;18.77;;
8584;SDS011;7180;52.742;11.420;2023-02-22T07:37:45;28.47;;;19.20;;
8584;SDS011;7180;52.742;11.420;2023-02-22T07:40:11;29.57;;;20.53;;
8584;SDS011;7180;52.742;11.420;2023-02-22T07:42:56;29.10;;;19.93;;
8584;SDS011;7180;52.742;11.420;2023-02-22T07:45:23;26.93;;;18.87;;
8584;SDS011;7180;52.742;11.420;2023-02-22T07:47:50;26.70;;;19.17;;
8584;SDS011;7180;52.742;11.420;2023-02-22T07:50:16;27.20;;;19.30;;
8584;SDS011;7180;52.742;11.420;2023-02-22T07:52:45;28.93;;;19.80;;
8584;SDS011;7180;52.742;11.420;2023-02-22T07:55:12;29.30;;;19.50;;
8584;SDS011;7180;52.742;11.420;2023-02-22T07:57:40;27.33;;;18.87;;
8584;SDS011;7180;52.742;11.420;2023-02-22T08:00:06;29.83;;;19.63;;
8584;SDS011;7180;52.742;11.420;2023-02-22T08:02:32;28.30;;;20.03;;
8584;SDS011;7180;52.742;11.420;2023-02-22T08:04:57;29.33;;;19.93;;
8584;SDS011;7180;52.742;11.420;2023-02-22T08:07:23;28.40;;;20.63;;
8584;SDS011;7180;52.742;11.420;2023-02-22T08:09:48;27.30;;;20.40;;
8584;SDS011;7180;52.742;11.420;2023-02-22T08:12:13;26.47;;;20.23;;
8584;SDS011;7180;52.742;11.420;2023-02-22T08:14:40;27.80;;;19.93;;
8584;SDS011;7180;52.742;11.420;2023-02-22T08:17:05;26.67;;;19.70;;
8584;SDS011;7180;52.742;11.420;2023-02-22T08:19:30;28.20;;;20.30;;
8584;SDS011;7180;52.742;11.420;2023-02-22T08:21:56;26.87;;;20.47;;
8584;SDS011;7180;52.742;11.420;2023-02-22T08:24:21;27.23;;;20.03;;
8584;SDS011;7180;52.742;11.420;2023-02-22T08:26:46;29.63;;;21.30;;
8584;SDS011;7180;52.742;11.420;2023-02-22T08:29:11;29.13;;;21.17;;
8584;SDS011;7180;52.742;11.420;2023-02-22T08:31:38;30.33;;;21.73;;
8584;SDS011;7180;52.742;11.420;2023-02-22T08:34:04;28.00;;;20.83;;
8584;SDS011;7180;52.742;11.420;2023-02-22T08:36:29;30.77;;;22.27;;
8584;SDS011;7180;52.742;11.420;2023-02-22T08:38:56;29.03;;;21.70;;
8584;SDS011;7180;52.742;11.420;2023-02-22T08:41:22;31.87;;;22.03;;
8584;SDS011;7180;52.742;11.420;2023-02-22T08:43:47;30.87;;;22.57;;
8584;SDS011;7180;52.742;11.420;2023-02-22T08:46:13;29.83;;;21.20;;
8584;SDS011;7180;52.742;11.420;2023-02-22T08:48:48;27.53;;;21.17;;
8584;SDS011;7180;52.742;11.420;2023-02-22T08:51:17;30.23;;;22.07;;
8584;SDS011;7180;52.742;11.420;2023-02-22T08:53:43;30.00;;;21.40;;
8584;SDS011;7180;52.742;11.420;2023-02-22T08:56:08;32.40;;;23.47;;
8584;SDS011;7180;52.742;11.420;2023-02-22T08:58:34;29.77;;;22.50;;
8584;SDS011;7180;52.742;11.420;2023-02-22T09:00:59;33.40;;;23.27;;
8584;SDS011;7180;52.742;11.420;2023-02-22T09:03:24;27.77;;;21.63;;
8584;SDS011;7180;52.742;11.420;2023-02-22T09:05:49;28.73;;;21.90;;
8584;SDS011;7180;52.742;11.420;2023-02-22T09:08:15;26.70;;;22.17;;
8584;SDS011;7180;52.742;11.420;2023-02-22T09:10:40;28.77;;;21.90;;
8584;SDS011;7180;52.742;11.420;2023-02-22T09:13:06;28.27;;;21.33;;
8584;SDS011;7180;52.742;11.420;2023-02-22T09:15:32;27.83;;;21.23;;
8584;SDS011;7180;52.742;11.420;2023-02-22T09:18:00;28.13;;;21.67;;
8584;SDS011;7180;52.742;11.420;2023-02-22T09:20:26;27.63;;;21.43;;
8584;SDS011;7180;52.742;11.420;2023-02-22T09:22:52;28.03;;;21.13;;
8584;SDS011;7180;52.742;11.420;2023-02-22T09:25:18;28.73;;;21.30;;
8584;SDS011;7180;52.742;11.420;2023-02-22T09:27:47;31.00;;;22.43;;
8584;SDS011;7180;52.742;11.420;2023-02-22T09:30:18;26.20;;;21.13;;
8584;SDS011;7180;52.742;11.420;2023-02-22T09:32:54;25.23;;;20.97;;
8584;SDS011;7180;52.742;11.420;2023-02-22T09:35:21;27.07;;;21.77;;
8584;SDS011;7180;52.742;11.420;2023-02-22T09:37:51;25.60;;;20.67;;
8584;SDS011;7180;52.742;11.420;2023-02-22T09:40:17;26.63;;;20.97;;
8584;SDS011;7180;52.742;11.420;2023-02-22T09:42:51;26.07;;;20.93;;
8584;SDS011;7180;52.742;11.420;2023-02-22T09:45:36;26.53;;;20.63;;
8584;SDS011;7180;52.742;11.420;2023-02-22T09:48:13;27.70;;;22.00;;
8584;SDS011;7180;52.742;11.420;2023-02-22T09:50:41;26.57;;;20.73;;
8584;SDS011;7180;52.742;11.420;2023-02-22T09:55:47;26.10;;;20.07;;
8584;SDS011;7180;52.742;11.420;2023-02-22T10:00:46;26.30;;;19.63;;
8584;SDS011;7180;52.742;11.420;2023-02-22T10:06:11;27.47;;;21.37;;
8584;SDS011;7180;52.742;11.420;2023-02-22T10:08:39;23.67;;;19.03;;
8584;SDS011;7180;52.742;11.420;2023-02-22T10:17:18;24.53;;;19.47;;
8584;SDS011;7180;52.742;11.420;2023-02-22T10:22:39;22.70;;;19.87;;
8584;SDS011;7180;52.742;11.420;2023-02-22T10:25:19;23.97;;;20.53;;
8584;SDS011;7180;52.742;11.420;2023-02-22T10:30:22;22.63;;;18.77;;
8584;SDS011;7180;52.742;11.420;2023-02-22T10:33:03;23.53;;;19.60;;
8584;SDS011;7180;52.742;11.420;2023-02-22T10:35:37;22.73;;;19.37;;
8584;SDS011;7180;52.742;11.420;2023-02-22T10:38:10;22.43;;;19.27;;
8584;SDS011;7180;52.742;11.420;2023-02-22T10:40:49;20.67;;;17.67;;
8584;SDS011;7180;52.742;11.420;2023-02-22T10:43:15;20.37;;;17.50;;
8584;SDS011;7180;52.742;11.420;2023-02-22T10:45:40;19.80;;;17.63;;
8584;SDS011;7180;52.742;11.420;2023-02-22T10:48:07;20.30;;;17.40;;
8584;SDS011;7180;52.742;11.420;2023-02-22T10:50:40;20.77;;;18.50;;
8584;SDS011;7180;52.742;11.420;2023-02-22T10:53:07;20.13;;;18.07;;
8584;SDS011;7180;52.742;11.420;2023-02-22T10:55:33;21.00;;;18.83;;
8584;SDS011;7180;52.742;11.420;2023-02-22T10:58:03;23.47;;;19.47;;
8584;SDS011;7180;52.742;11.420;2023-02-22T11:00:35;22.93;;;19.27;;
8584;SDS011;7180;52.742;11.420;2023-02-22T11:03:15;23.00;;;19.70;;
8584;SDS011;7180;52.742;11.420;2023-02-22T11:05:46;24.63;;;19.90;;
8584;SDS011;7180;52.742;11.420;2023-02-22T11:10:38;23.50;;;20.23;;
8584;SDS011;7180;52.742;11.420;2023-02-22T11:13:15;23.03;;;19.37;;
8584;SDS011;7180;52.742;11.420;2023-02-22T11:16:16;26.57;;;21.50;;
8584;SDS011;7180;52.742;11.420;2023-02-22T11:18:43;25.23;;;20.70;;
8584;SDS011;7180;52.742;11.420;2023-02-22T11:21:10;24.93;;;20.40;;
8584;SDS011;7180;52.742;11.420;2023-02-22T11:23:38;23.50;;;20.37;;
8584;SDS011;7180;52.742;11.420;2023-02-22T11:26:09;25.00;;;20.47;;
8584;SDS011;7180;52.742;11.420;2023-02-22T11:28:39;23.47;;;19.93;;
8584;SDS011;7180;52.742;11.420;2023-02-22T11:31:20;24.87;;;19.17;;
8584;SDS011;7180;52.742;11.420;2023-02-22T11:33:50;25.40;;;21.13;;
8584;SDS011;7180;52.742;11.420;2023-02-22T11:36:37;25.67;;;19.87;;
8584;SDS011;7180;52.742;11.420;2023-02-22T11:39:20;25.30;;;20.93;;
8584;SDS011;7180;52.742;11.420;2023-02-22T11:41:45;25.67;;;20.73;;
8584;SDS011;7180;52.742;11.420;2023-02-22T11:44:27;22.53;;;19.50;;
8584;SDS011;7180;52.742;11.420;2023-02-22T11:46:59;23.60;;;19.47;;
8584;SDS011;7180;52.742;11.420;2023-02-22T11:49:31;23.47;;;19.43;;
8584;SDS011;7180;52.742;11.420;2023-02-22T11:58:03;23.47;;;20.10;;
8584;SDS011;7180;52.742;11.420;2023-02-22T12:03:31;20.67;;;18.13;;
8584;SDS011;7180;52.742;11.420;2023-02-22T12:09:11;20.90;;;18.27;;
8584;SDS011;7180;52.742;11.420;2023-02-22T12:14:16;19.07;;;17.07;;
8584;SDS011;7180;52.742;11.420;2023-02-22T12:19:44;20.27;;;18.13;;
8584;SDS011;7180;52.742;11.420;2023-02-22T12:22:18;19.47;;;17.37;;
8584;SDS011;7180;52.742;11.420;2023-02-22T12:24:48;20.30;;;16.57;;
8584;SDS011;7180;52.742;11.420;2023-02-22T12:27:27;18.63;;;16.33;;
8584;SDS011;7180;52.742;11.420;2023-02-22T12:30:44;21.17;;;18.00;;
8584;SDS011;7180;52.742;11.420;2023-02-22T12:32:49;18.13;;;15.90;;
8584;SDS011;7180;52.742;11.420;2023-02-22T12:35:21;20.30;;;17.67;;
8584;SDS011;7180;52.742;11.420;2023-02-22T12:38:08;19.73;;;17.73;;
8584;SDS011;7180;52.742;11.420;2023-02-22T12:40:47;20.03;;;17.83;;
8584;SDS011;7180;52.742;11.420;2023-02-22T12:45:56;17.63;;;15.80;;
8584;SDS011;7180;52.742;11.420;2023-02-22T12:57:15;19.00;;;17.10;;
8584;SDS011;7180;52.742;11.420;2023-02-22T12:59:52;18.07;;;16.20;;
8584;SDS011;7180;52.742;11.420;2023-02-22T13:02:25;18.63;;;16.83;;
8584;SDS011;7180;52.742;11.420;2023-02-22T13:04:56;19.50;;;16.10;;
8584;SDS011;7180;52.742;11.420;2023-02-22T13:18:45;18.60;;;16.70;;
8584;SDS011;7180;52.742;11.420;2023-02-22T13:24:17;18.90;;;17.00;;
8584;SDS011;7180;52.742;11.420;2023-02-22T13:26:51;18.63;;;16.83;;
8584;SDS011;7180;52.742;11.420;2023-02-22T13:29:24;18.20;;;16.50;;
8584;SDS011;7180;52.742;11.420;2023-02-22T13:52:17;18.23;;;16.53;;
8584;SDS011;7180;52.742;11.420;2023-02-22T13:54:48;17.67;;;15.97;;
8584;SDS011;7180;52.742;11.420;2023-02-22T14:10:58;17.70;;;16.00;;
8584;SDS011;7180;52.742;11.420;2023-02-22T14:13:30;17.20;;;15.60;;
8584;SDS011;7180;52.742;11.420;2023-02-22T14:18:25;16.80;;;15.27;;
8584;SDS011;7180;52.742;11.420;2023-02-22T14:31:19;17.73;;;16.13;;
8584;SDS011;7180;52.742;11.420;2023-02-22T14:33:51;18.00;;;16.30;;
8584;SDS011;7180;52.742;11.420;2023-02-22T14:36:20;18.03;;;16.30;;
8584;SDS011;7180;52.742;11.420;2023-02-22T14:38:47;17.90;;;16.07;;
8584;SDS011;7180;52.742;11.420;2023-02-22T14:41:16;18.07;;;16.27;;
8584;SDS011;7180;52.742;11.420;2023-02-22T14:43:42;18.77;;;17.03;;
8584;SDS011;7180;52.742;11.420;2023-02-22T14:46:09;18.03;;;16.33;;
8584;SDS011;7180;52.742;11.420;2023-02-22T14:48:41;17.63;;;15.87;;
8584;SDS011;7180;52.742;11.420;2023-02-22T14:54:19;18.73;;;16.90;;
8584;SDS011;7180;52.742;11.420;2023-02-22T14:59:17;18.90;;;16.93;;
8584;SDS011;7180;52.742;11.420;2023-02-22T15:01:49;17.63;;;15.83;;
8584;SDS011;7180;52.742;11.420;2023-02-22T15:04:28;19.67;;;17.63;;
8584;SDS011;7180;52.742;11.420;2023-02-22T15:06:55;18.83;;;17.03;;
8584;SDS011;7180;52.742;11.420;2023-02-22T15:09:26;18.40;;;16.60;;
8584;SDS011;7180;52.742;11.420;2023-02-22T15:14:26;20.20;;;18.23;;
8584;SDS011;7180;52.742;11.420;2023-02-22T15:16:59;19.80;;;17.97;;
8584;SDS011;7180;52.742;11.420;2023-02-22T15:19:29;21.77;;;19.47;;
8584;SDS011;7180;52.742;11.420;2023-02-22T15:21:57;20.10;;;18.10;;
8584;SDS011;7180;52.742;11.420;2023-02-22T15:24:34;21.23;;;19.13;;
8584;SDS011;7180;52.742;11.420;2023-02-22T15:27:05;21.77;;;19.57;;
8584;SDS011;7180;52.742;11.420;2023-02-22T15:29:40;21.73;;;19.20;;
8584;SDS011;7180;52.742;11.420;2023-02-22T15:32:28;21.23;;;19.13;;
8584;SDS011;7180;52.742;11.420;2023-02-22T15:35:10;21.47;;;19.27;;
8584;SDS011;7180;52.742;11.420;2023-02-22T15:37:35;20.93;;;18.83;;
8584;SDS011;7180;52.742;11.420;2023-02-22T15:40:07;20.47;;;18.47;;
8584;SDS011;7180;52.742;11.420;2023-02-22T15:45:18;20.87;;;18.67;;
8584;SDS011;7180;52.742;11.420;2023-02-22T15:47:47;21.73;;;19.53;;
8584;SDS011;7180;52.742;11.420;2023-02-22T15:50:20;21.57;;;19.50;;
8584;SDS011;7180;52.742;11.420;2023-02-22T15:52:58;22.33;;;20.00;;
8584;SDS011;7180;52.742;11.420;2023-02-22T15:55:53;21.57;;;19.37;;
8584;SDS011;7180;52.742;11.420;2023-02-22T15:58:22;21.57;;;19.33;;
8584;SDS011;7180;52.742;11.420;2023-02-22T16:01:12;22.07;;;19.90;;
8584;SDS011;7180;52.742;11.420;2023-02-22T16:03:43;22.07;;;19.77;;
8584;SDS011;7180;52.742;11.420;2023-02-22T16:06:12;22.03;;;19.67;;
8584;SDS011;7180;52.742;11.420;2023-02-22T16:11:20;22.23;;;19.97;;
8584;SDS011;7180;52.742;11.420;2023-02-22T16:13:54;21.20;;;19.10;;
8584;SDS011;7180;52.742;11.420;2023-02-22T16:16:25;23.07;;;20.57;;
8584;SDS011;7180;52.742;11.420;2023-02-22T16:19:14;20.90;;;18.77;;
8584;SDS011;7180;52.742;11.420;2023-02-22T16:21:54;22.47;;;20.17;;
8584;SDS011;7180;52.742;11.420;2023-02-22T16:27:03;21.30;;;19.20;;
8584;SDS011;7180;52.742;11.420;2023-02-22T16:29:31;21.97;;;19.67;;
8584;SDS011;7180;52.742;11.420;2023-02-22T16:31:57;22.33;;;19.93;;
8584;SDS011;7180;52.742;11.420;2023-02-22T16:34:22;22.37;;;20.07;;
8584;SDS011;7180;52.742;11.420;2023-02-22T16:36:47;21.70;;;19.50;;
8584;SDS011;7180;52.742;11.420;2023-02-22T16:41:47;21.20;;;18.97;;
8584;SDS011;7180;52.742;11.420;2023-02-22T16:44:14;21.27;;;19.10;;
8584;SDS011;7180;52.742;11.420;2023-02-22T16:46:41;21.40;;;19.20;;
8584;SDS011;7180;52.742;11.420;2023-02-22T16:49:10;21.67;;;19.13;;
8584;SDS011;7180;52.742;11.420;2023-02-22T16:51:38;20.57;;;18.37;;
8584;SDS011;7180;52.742;11.420;2023-02-22T16:54:09;21.03;;;18.77;;
8584;SDS011;7180;52.742;11.420;2023-02-22T16:56:37;20.67;;;18.47;;
8584;SDS011;7180;52.742;11.420;2023-02-22T16:59:06;20.60;;;18.47;;
8584;SDS011;7180;52.742;11.420;2023-02-22T17:01:34;20.80;;;18.80;;
8584;SDS011;7180;52.742;11.420;2023-02-22T17:03:59;20.77;;;18.60;;
8584;SDS011;7180;52.742;11.420;2023-02-22T17:06:24;20.57;;;18.57;;
8584;SDS011;7180;52.742;11.420;2023-02-22T17:08:50;19.17;;;17.27;;
8584;SDS011;7180;52.742;11.420;2023-02-22T17:11:16;20.10;;;17.97;;
8584;SDS011;7180;52.742;11.420;2023-02-22T17:13:42;19.93;;;18.03;;
8584;SDS011;7180;52.742;11.420;2023-02-22T17:16:13;22.63;;;20.23;;
8584;SDS011;7180;52.742;11.420;2023-02-22T17:18:38;21.77;;;19.47;;
8584;SDS011;7180;52.742;11.420;2023-02-22T17:21:04;19.77;;;17.87;;
8584;SDS011;7180;52.742;11.420;2023-02-22T17:23:29;20.90;;;18.80;;
8584;SDS011;7180;52.742;11.420;2023-02-22T17:25:56;20.57;;;18.37;;